Alamogordo White Sands Regional Airport Alamogordo US
ICAO: KALM
IATA: ALM
Category: Medium
Scheduled Services: Yes

Elevation: 4200 ft
TransAlt. 18000 ft.

Airport Communications:
HOLLOMAN APP:120.6
AWOS 3:127.825
HOLLOMAN DEP:128.1
ALBUQUERQUE RDO:122.15
CTAF/UNICOM:122.8

KALM Zoom In..

If Map Doesn't Load, Click Here

Runways:

(A) RW 03 length 7005 ft width 150 ft
---- / hdg 35

(B) RW 16 length 3549 ft width 190 ft
---- / hdg 163

(C) RW 21 length 7005 ft width 150 ft
---- / hdg 215

(D) RW 34 length 3549 ft width 190 ft
---- / hdg 343

Location; KALM
Day. 21 / Time. 13.35 Zulu
* Altimeter: 30.11
* Temperature: 14° c. 57.2°f.
* Wind from: 000° Speed 00 kn.
Dewpoint: 13° c.
Visibility: 10 Statute Miles.
Clouds: Clear (automated report).

KALM 211335Z AUTO 00000KT 10SM CLR 14/13 A3011 RMK AO2


Wind - Calm.

 
 
jpsmedia.com for Web Design worldairports.se 2018   terms of use